Time;durP1;ratioP1;P1;durP2;ratioP2;P2;SDS_P1;SDS_P2;PMS_P1;PMS_P2;Temp;Humidity;BMP_temperature;BMP_pressure;BME280_temperature;BME280_humidity;BME280_pressure;Samples;Min_cycle;Max_cycle;Signal;HPM_P1;HPM_P2
2024/02/05 00:01:49;;;;;;;0.20;0.10;;;;;;;;;;5045758;28;20060;-87
2024/02/05 00:04:21;;;;;;;0.20;0.10;;;;;;;;;;5049051;28;20428;-85
2024/02/05 00:06:47;;;;;;;0.20;0.10;;;;;;;;;;5060219;28;20044;-86
2024/02/05 00:09:13;;;;;;;0.45;0.45;;;;;;;;;;5045287;28;20036;-84
2024/02/05 00:11:42;;;;;;;0.20;0.20;;;;;;;;;;5062994;28;20028;-85
2024/02/05 00:14:12;;;;;;;0.20;0.00;;;;;;;;;;5056994;28;20912;-86
2024/02/05 00:16:50;;;;;;;0.95;0.90;;;;;;;;;;5059549;28;20041;-86
2024/02/05 00:19:29;;;;;;;0.20;0.10;;;;;;;;;;5059110;28;20487;-86
2024/02/05 00:21:58;;;;;;;0.20;0.00;;;;;;;;;;5064485;28;20459;-87
2024/02/05 00:24:24;;;;;;;0.20;0.10;;;;;;;;;;5046007;28;20040;-82
2024/02/05 00:26:50;;;;;;;0.20;0.10;;;;;;;;;;5046316;28;20040;-85
2024/02/05 00:29:19;;;;;;;0.20;0.10;;;;;;;;;;5039780;28;20047;-82
2024/02/05 00:31:45;;;;;;;0.20;0.10;;;;;;;;;;5059922;28;20040;-86
2024/02/05 00:34:12;;;;;;;1.85;1.00;;;;;;;;;;5063137;28;20048;-85
2024/02/05 00:36:41;;;;;;;0.30;0.20;;;;;;;;;;5047396;28;20037;-88
2024/02/05 00:39:13;;;;;;;0.20;0.10;;;;;;;;;;5048282;28;20036;-85
2024/02/05 00:41:40;;;;;;;0.20;0.13;;;;;;;;;;5049072;28;20045;-85
2024/02/05 00:44:15;;;;;;;0.20;0.00;;;;;;;;;;5051760;28;20147;-88
2024/02/05 00:46:44;;;;;;;0.20;0.10;;;;;;;;;;5063365;28;20072;-85
2024/02/05 00:49:10;;;;;;;0.40;0.38;;;;;;;;;;5063938;28;20043;-84
2024/02/05 00:51:39;;;;;;;0.20;0.10;;;;;;;;;;5050446;28;20231;-85
2024/02/05 00:54:05;;;;;;;0.20;0.00;;;;;;;;;;5063191;28;20485;-83
2024/02/05 00:56:33;;;;;;;0.68;0.50;;;;;;;;;;5065265;28;20078;-86
2024/02/05 00:59:00;;;;;;;0.22;0.13;;;;;;;;;;5048930;28;20037;-85
2024/02/05 01:01:26;;;;;;;0.20;0.10;;;;;;;;;;5049096;28;20500;-85
2024/02/05 01:03:54;;;;;;;0.20;0.10;;;;;;;;;;5047225;28;20040;-85
2024/02/05 01:06:23;;;;;;;0.20;0.10;;;;;;;;;;5049021;28;20036;-89
2024/02/05 01:08:49;;;;;;;0.20;0.10;;;;;;;;;;5045699;28;20072;-85
2024/02/05 01:11:15;;;;;;;1.15;0.30;;;;;;;;;;5051220;28;20090;-84
2024/02/05 01:13:42;;;;;;;0.30;0.28;;;;;;;;;;5065568;28;20089;-86
2024/02/05 01:16:17;;;;;;;2.55;1.85;;;;;;;;;;5064763;28;20047;-86
2024/02/05 01:18:43;;;;;;;0.20;0.10;;;;;;;;;;5048651;28;20503;-85
2024/02/05 01:21:09;;;;;;;0.20;0.00;;;;;;;;;;5063585;28;20032;-87
2024/02/05 01:23:38;;;;;;;0.45;0.45;;;;;;;;;;5050686;28;20045;-87
2024/02/05 01:26:05;;;;;;;0.20;0.10;;;;;;;;;;5048021;28;20048;-85
2024/02/05 01:28:31;;;;;;;0.20;0.05;;;;;;;;;;5063074;28;20542;-85
2024/02/05 01:30:57;;;;;;;0.20;0.00;;;;;;;;;;5047532;28;20057;-83
2024/02/05 01:33:26;;;;;;;0.28;0.25;;;;;;;;;;5063999;28;20120;-88
2024/02/05 01:35:55;;;;;;;0.20;0.10;;;;;;;;;;5065931;28;20036;-85
2024/02/05 01:38:21;;;;;;;0.20;0.20;;;;;;;;;;5065844;28;20093;-86
2024/02/05 01:40:52;;;;;;;1.85;0.95;;;;;;;;;;5050648;28;20041;-86
2024/02/05 01:43:18;;;;;;;0.40;0.38;;;;;;;;;;5045761;28;20032;-85
2024/02/05 01:45:46;;;;;;;0.30;0.25;;;;;;;;;;5052075;28;20428;-83
2024/02/05 01:48:13;;;;;;;0.20;0.10;;;;;;;;;;5048741;28;20393;-85
2024/02/05 01:50:42;;;;;;;0.20;0.10;;;;;;;;;;5045246;28;20051;-86
2024/02/05 01:53:15;;;;;;;0.50;0.50;;;;;;;;;;5047324;28;20037;-87
2024/02/05 01:55:43;;;;;;;0.20;0.10;;;;;;;;;;5048671;28;20041;-82
2024/02/05 01:58:09;;;;;;;0.22;0.20;;;;;;;;;;5047896;28;20037;-82
2024/02/05 02:00:35;;;;;;;1.75;1.17;;;;;;;;;;5045928;28;20040;-84
2024/02/05 02:03:02;;;;;;;10.52;1.13;;;;;;;;;;5066351;28;20036;-84
2024/02/05 02:05:28;;;;;;;0.20;0.10;;;;;;;;;;5061205;28;20037;-84
2024/02/05 02:07:55;;;;;;;0.60;0.60;;;;;;;;;;5047485;28;20076;-86
2024/02/05 02:10:24;;;;;;;0.20;0.10;;;;;;;;;;5045876;28;20037;-86
2024/02/05 02:12:53;;;;;;;0.20;0.10;;;;;;;;;;5049248;28;20047;-86
2024/02/05 02:15:19;;;;;;;0.20;0.05;;;;;;;;;;5062747;28;20527;-85
2024/02/05 02:17:46;;;;;;;0.20;0.10;;;;;;;;;;5047917;28;20181;-85
2024/02/05 02:20:15;;;;;;;0.20;0.10;;;;;;;;;;5044373;28;20048;-86
2024/02/05 02:22:53;;;;;;;0.20;0.03;;;;;;;;;;5045969;28;20097;-84
2024/02/05 02:25:23;;;;;;;2.05;1.55;;;;;;;;;;5045636;28;20064;-87
2024/02/05 02:27:49;;;;;;;0.20;0.08;;;;;;;;;;5051921;22;20143;-82
2024/02/05 02:30:17;;;;;;;0.20;0.10;;;;;;;;;;5025449;28;20048;-83
2024/02/05 02:32:43;;;;;;;0.20;0.10;;;;;;;;;;5026305;28;20131;-83
2024/02/05 02:35:39;;;;;;;0.20;0.10;;;;;;;;;;5030589;28;20506;-85
2024/02/05 02:38:09;;;;;;;0.20;0.10;;;;;;;;;;5010377;28;20585;-80
2024/02/05 02:40:36;;;;;;;0.20;0.10;;;;;;;;;;5009921;28;20425;-86
2024/02/05 02:43:04;;;;;;;0.20;0.10;;;;;;;;;;5037036;28;20076;-83
2024/02/05 02:45:31;;;;;;;0.20;0.10;;;;;;;;;;5024315;28;20439;-84
2024/02/05 02:48:03;;;;;;;0.20;0.10;;;;;;;;;;5002809;28;20128;-83
2024/02/05 02:50:29;;;;;;;0.20;0.10;;;;;;;;;;5005716;28;20043;-82
2024/02/05 02:52:55;;;;;;;0.20;0.10;;;;;;;;;;4997971;28;20136;-83
2024/02/05 02:55:21;;;;;;;0.20;0.10;;;;;;;;;;5014385;28;20044;-85
2024/02/05 02:57:47;;;;;;;1.30;1.02;;;;;;;;;;5007245;28;20113;-82
2024/02/05 03:00:14;;;;;;;0.20;0.10;;;;;;;;;;5004124;28;20044;-83
2024/02/05 03:02:40;;;;;;;0.20;0.10;;;;;;;;;;5011669;28;20133;-82
2024/02/05 03:05:07;;;;;;;0.20;0.00;;;;;;;;;;5004294;28;20124;-84
2024/02/05 03:07:34;;;;;;;0.20;0.10;;;;;;;;;;5006935;28;20053;-83
2024/02/05 03:10:01;;;;;;;0.20;0.10;;;;;;;;;;5002637;28;20133;-84
2024/02/05 03:12:27;;;;;;;0.20;0.00;;;;;;;;;;5001321;28;20095;-84
2024/02/05 03:14:53;;;;;;;0.20;0.10;;;;;;;;;;5011816;28;20076;-84
2024/02/05 03:17:19;;;;;;;0.20;0.10;;;;;;;;;;5007783;28;20067;-83
2024/02/05 03:19:45;;;;;;;0.20;0.10;;;;;;;;;;5008826;28;20481;-81
2024/02/05 03:22:12;;;;;;;0.20;0.10;;;;;;;;;;5020246;28;20103;-83
2024/02/05 03:24:38;;;;;;;0.20;0.10;;;;;;;;;;5000067;28;20112;-84
2024/02/05 03:27:04;;;;;;;0.25;0.08;;;;;;;;;;5003351;28;20581;-83
2024/02/05 03:29:31;;;;;;;0.20;0.00;;;;;;;;;;5005425;28;20049;-84
2024/02/05 03:31:57;;;;;;;0.88;0.88;;;;;;;;;;5002161;28;20038;-85
2024/02/05 03:34:24;;;;;;;0.20;0.10;;;;;;;;;;5035515;28;20115;-81
2024/02/05 03:36:50;;;;;;;2.65;0.88;;;;;;;;;;5039890;28;20073;-83
2024/02/05 03:39:16;;;;;;;0.82;0.43;;;;;;;;;;5001661;28;20041;-82
2024/02/05 03:41:42;;;;;;;0.30;0.30;;;;;;;;;;5001387;28;20501;-83
2024/02/05 03:44:08;;;;;;;0.20;0.10;;;;;;;;;;5000253;28;20095;-81
2024/02/05 03:46:34;;;;;;;0.20;0.10;;;;;;;;;;5006906;28;20041;-83
2024/02/05 03:49:00;;;;;;;0.20;0.03;;;;;;;;;;5010126;28;20494;-82
2024/02/05 03:51:26;;;;;;;0.20;0.10;;;;;;;;;;4998232;28;20065;-83
2024/02/05 03:53:52;;;;;;;0.30;0.30;;;;;;;;;;5003959;28;20075;-83
2024/02/05 03:56:18;;;;;;;0.57;0.15;;;;;;;;;;5007015;28;20038;-81
2024/02/05 03:58:45;;;;;;;0.20;0.05;;;;;;;;;;5004560;28;20037;-83
2024/02/05 04:01:11;;;;;;;0.75;0.75;;;;;;;;;;5020116;28;20061;-81
2024/02/05 04:03:37;;;;;;;0.60;0.60;;;;;;;;;;5023750;28;20033;-84
2024/02/05 04:06:03;;;;;;;0.20;0.00;;;;;;;;;;5002081;28;20409;-83
2024/02/05 04:08:29;;;;;;;0.20;0.10;;;;;;;;;;5003278;28;20080;-84
2024/02/05 04:10:56;;;;;;;0.20;0.10;;;;;;;;;;4999818;28;20064;-85
2024/02/05 04:13:22;;;;;;;0.20;0.08;;;;;;;;;;5007592;28;20080;-85
2024/02/05 04:15:48;;;;;;;0.20;0.00;;;;;;;;;;5009746;28;20281;-82
2024/02/05 04:18:14;;;;;;;0.20;0.20;;;;;;;;;;5038024;28;20103;-82
2024/02/05 04:20:40;;;;;;;0.20;0.10;;;;;;;;;;5012624;28;20060;-82
2024/02/05 04:23:06;;;;;;;0.20;0.00;;;;;;;;;;5010536;28;20498;-85
2024/02/05 04:25:32;;;;;;;0.20;0.20;;;;;;;;;;5013581;28;20053;-82
2024/02/05 04:27:59;;;;;;;0.20;0.20;;;;;;;;;;5027184;28;20037;-83
2024/02/05 04:30:36;;;;;;;0.20;0.10;;;;;;;;;;5006158;28;20057;-83
2024/02/05 04:33:05;;;;;;;2.75;2.17;;;;;;;;;;5013927;28;20130;-79
2024/02/05 04:35:31;;;;;;;0.90;0.90;;;;;;;;;;5027693;28;20033;-79
2024/02/05 04:37:57;;;;;;;0.20;0.10;;;;;;;;;;5042103;28;20036;-82
2024/02/05 04:40:23;;;;;;;0.20;0.20;;;;;;;;;;5025851;28;20039;-82
2024/02/05 04:42:49;;;;;;;0.30;0.28;;;;;;;;;;5000945;28;20053;-81
2024/02/05 04:45:15;;;;;;;0.28;0.13;;;;;;;;;;5021710;28;20049;-80
2024/02/05 04:47:42;;;;;;;0.20;0.20;;;;;;;;;;5007967;28;20037;-81
2024/02/05 04:50:08;;;;;;;0.20;0.17;;;;;;;;;;5022414;28;20045;-82
2024/02/05 04:52:34;;;;;;;0.20;0.10;;;;;;;;;;5021491;28;20782;-85
2024/02/05 04:55:00;;;;;;;1.05;1.00;;;;;;;;;;5021318;28;20056;-83
2024/02/05 04:57:26;;;;;;;0.45;0.45;;;;;;;;;;5001506;28;20041;-82
2024/02/05 04:59:52;;;;;;;0.20;0.10;;;;;;;;;;5001796;28;20037;-82
2024/02/05 05:02:18;;;;;;;0.20;0.10;;;;;;;;;;5017253;28;20041;-82
2024/02/05 05:04:44;;;;;;;0.20;0.10;;;;;;;;;;5021109;28;20049;-83
2024/02/05 05:07:10;;;;;;;0.20;0.10;;;;;;;;;;5006020;28;20041;-83
2024/02/05 05:09:39;;;;;;;0.25;0.25;;;;;;;;;;5021963;28;20041;-82
2024/02/05 05:12:05;;;;;;;0.43;0.43;;;;;;;;;;5003637;28;20072;-82
2024/02/05 05:14:34;;;;;;;0.20;0.00;;;;;;;;;;5025293;28;20037;-83
2024/02/05 05:17:00;;;;;;;2.85;1.27;;;;;;;;;;5005939;28;20076;-85
2024/02/05 05:19:26;;;;;;;0.32;0.25;;;;;;;;;;5005704;28;20064;-80
2024/02/05 05:21:52;;;;;;;0.20;0.10;;;;;;;;;;5022806;28;20897;-81
2024/02/05 05:24:18;;;;;;;0.20;0.20;;;;;;;;;;5021726;28;20833;-78
2024/02/05 05:26:44;;;;;;;0.30;0.28;;;;;;;;;;5021472;28;20056;-83
2024/02/05 05:29:10;;;;;;;0.20;0.10;;;;;;;;;;5011275;28;20033;-81
2024/02/05 05:31:36;;;;;;;0.20;0.10;;;;;;;;;;5023070;28;20045;-84
2024/02/05 05:34:05;;;;;;;0.20;0.20;;;;;;;;;;5011893;28;20124;-86
2024/02/05 05:36:32;;;;;;;0.20;0.10;;;;;;;;;;5005480;28;20037;-82
2024/02/05 05:38:58;;;;;;;0.20;0.10;;;;;;;;;;5015078;28;20033;-82
2024/02/05 05:41:24;;;;;;;0.20;0.10;;;;;;;;;;5011935;28;20080;-80
2024/02/05 05:43:52;;;;;;;0.20;0.10;;;;;;;;;;5013452;28;20559;-81
2024/02/05 05:46:18;;;;;;;0.40;0.38;;;;;;;;;;5010760;28;20053;-81
2024/02/05 05:48:44;;;;;;;0.35;0.35;;;;;;;;;;5011102;28;20471;-78
2024/02/05 05:51:10;;;;;;;0.20;0.10;;;;;;;;;;5021787;28;20399;-85
2024/02/05 05:53:36;;;;;;;0.20;0.17;;;;;;;;;;5006133;28;20044;-83
2024/02/05 05:56:02;;;;;;;0.68;0.30;;;;;;;;;;5004866;28;20034;-83
2024/02/05 05:58:31;;;;;;;0.30;0.30;;;;;;;;;;5025089;28;20029;-83
2024/02/05 06:00:57;;;;;;;0.20;0.10;;;;;;;;;;5005937;28;20041;-83
2024/02/05 06:03:23;;;;;;;0.20;0.10;;;;;;;;;;5026498;28;20701;-85
2024/02/05 06:05:49;;;;;;;1.13;0.65;;;;;;;;;;5008600;28;20041;-84
2024/02/05 06:08:16;;;;;;;0.20;0.20;;;;;;;;;;5021289;28;20049;-84
2024/02/05 06:10:42;;;;;;;0.95;0.90;;;;;;;;;;5007989;28;20304;-83
2024/02/05 06:13:08;;;;;;;0.20;0.10;;;;;;;;;;5007654;28;20037;-84
2024/02/05 06:15:37;;;;;;;0.63;0.63;;;;;;;;;;5009539;28;20041;-85
2024/02/05 06:18:03;;;;;;;0.20;0.10;;;;;;;;;;5005411;28;20429;-85
2024/02/05 06:20:29;;;;;;;0.20;0.20;;;;;;;;;;5009761;28;20041;-82
2024/02/05 06:22:55;;;;;;;3.22;1.38;;;;;;;;;;5020625;28;20069;-84
2024/02/05 06:25:22;;;;;;;0.20;0.10;;;;;;;;;;5001646;28;20565;-83
2024/02/05 06:27:48;;;;;;;0.20;0.10;;;;;;;;;;5010025;28;20038;-83
2024/02/05 06:30:14;;;;;;;0.20;0.10;;;;;;;;;;5013332;28;20064;-82
2024/02/05 06:32:40;;;;;;;0.32;0.32;;;;;;;;;;5020166;28;20037;-83
2024/02/05 06:35:09;;;;;;;1.30;0.85;;;;;;;;;;5006881;28;20034;-85
2024/02/05 06:37:35;;;;;;;0.20;0.10;;;;;;;;;;5016262;28;20041;-85
2024/02/05 06:40:01;;;;;;;0.20;0.10;;;;;;;;;;5014304;28;20037;-82
2024/02/05 06:42:27;;;;;;;1.17;1.08;;;;;;;;;;5034477;28;20049;-81
2024/02/05 06:44:53;;;;;;;0.47;0.28;;;;;;;;;;5017605;28;20088;-82
2024/02/05 06:47:22;;;;;;;0.20;0.10;;;;;;;;;;5025501;28;20045;-82
2024/02/05 06:49:48;;;;;;;0.30;0.30;;;;;;;;;;5031544;28;20045;-88
2024/02/05 06:52:15;;;;;;;0.20;0.10;;;;;;;;;;5008979;28;20068;-87
2024/02/05 06:54:41;;;;;;;0.20;0.10;;;;;;;;;;5004536;28;20037;-82
2024/02/05 06:57:07;;;;;;;0.20;0.10;;;;;;;;;;5029293;28;20060;-84
2024/02/05 06:59:33;;;;;;;0.20;0.20;;;;;;;;;;5010933;28;20116;-86
2024/02/05 07:01:59;;;;;;;0.20;0.10;;;;;;;;;;5026847;28;20064;-86
2024/02/05 07:04:25;;;;;;;0.20;0.15;;;;;;;;;;5015755;28;20098;-82
2024/02/05 07:06:51;;;;;;;0.20;0.20;;;;;;;;;;5011683;28;20037;-84
2024/02/05 07:09:17;;;;;;;0.30;0.20;;;;;;;;;;5010296;28;20490;-85
2024/02/05 07:11:43;;;;;;;0.20;0.10;;;;;;;;;;5014260;28;20053;-85
2024/02/05 07:14:09;;;;;;;0.40;0.40;;;;;;;;;;5013360;28;20165;-83
2024/02/05 07:16:35;;;;;;;0.73;0.47;;;;;;;;;;5026015;28;20056;-85
2024/02/05 07:19:01;;;;;;;0.20;0.10;;;;;;;;;;5017134;28;20037;-82
2024/02/05 07:21:28;;;;;;;0.20;0.10;;;;;;;;;;5032269;28;20050;-84
2024/02/05 07:23:54;;;;;;;0.20;0.00;;;;;;;;;;5017714;28;20041;-83
2024/02/05 07:26:20;;;;;;;0.40;0.40;;;;;;;;;;5030908;28;20072;-86
2024/02/05 07:28:46;;;;;;;0.20;0.10;;;;;;;;;;5015208;28;20118;-82
2024/02/05 07:31:12;;;;;;;0.20;0.10;;;;;;;;;;5020991;28;20489;-83
2024/02/05 07:33:38;;;;;;;0.20;0.00;;;;;;;;;;5025358;28;20080;-84
2024/02/05 07:36:04;;;;;;;0.22;0.10;;;;;;;;;;5006096;28;20042;-83
2024/02/05 07:38:30;;;;;;;0.20;0.10;;;;;;;;;;5022430;28;20052;-83
2024/02/05 07:40:58;;;;;;;0.38;0.38;;;;;;;;;;5014915;28;20045;-84
2024/02/05 07:43:24;;;;;;;0.20;0.10;;;;;;;;;;5028488;28;20045;-83
2024/02/05 07:45:50;;;;;;;0.20;0.03;;;;;;;;;;5025463;28;20119;-83
2024/02/05 07:48:16;;;;;;;0.20;0.00;;;;;;;;;;5020906;28;20497;-85
2024/02/05 07:50:42;;;;;;;0.20;0.00;;;;;;;;;;5012211;28;20054;-84
2024/02/05 07:53:08;;;;;;;0.20;0.10;;;;;;;;;;5021118;28;20124;-88
2024/02/05 07:55:34;;;;;;;0.40;0.32;;;;;;;;;;5022001;28;20100;-85
2024/02/05 07:58:00;;;;;;;0.20;0.10;;;;;;;;;;5012038;28;20645;-85
2024/02/05 08:00:26;;;;;;;0.43;0.43;;;;;;;;;;5009397;28;20026;-83
2024/02/05 08:02:52;;;;;;;0.20;0.00;;;;;;;;;;5012783;28;20041;-84
2024/02/05 08:05:18;;;;;;;2.28;0.75;;;;;;;;;;5012574;28;20506;-81
2024/02/05 08:07:44;;;;;;;0.20;0.10;;;;;;;;;;5012297;28;20038;-83
2024/02/05 08:10:11;;;;;;;8.32;1.25;;;;;;;;;;5007116;28;20045;-84
2024/02/05 08:12:37;;;;;;;0.30;0.20;;;;;;;;;;5022980;28;20530;-83
2024/02/05 08:15:04;;;;;;;0.52;0.52;;;;;;;;;;5012166;28;20115;-84
2024/02/05 08:17:30;;;;;;;0.20;0.10;;;;;;;;;;5008195;28;20045;-83
2024/02/05 08:19:56;;;;;;;1.38;0.90;;;;;;;;;;5015396;28;20041;-84
2024/02/05 08:22:22;;;;;;;0.20;0.00;;;;;;;;;;5024106;28;20255;-85
2024/02/05 08:24:51;;;;;;;0.20;0.10;;;;;;;;;;5009772;28;20041;-85
2024/02/05 08:27:17;;;;;;;0.20;0.10;;;;;;;;;;5027702;23;20056;-82
2024/02/05 08:29:43;;;;;;;0.20;0.10;;;;;;;;;;5034537;28;20048;-85
2024/02/05 08:32:09;;;;;;;0.20;0.10;;;;;;;;;;5042107;28;20043;-84
2024/02/05 08:34:39;;;;;;;0.20;0.10;;;;;;;;;;5022846;28;20041;-83
2024/02/05 08:37:05;;;;;;;0.35;0.32;;;;;;;;;;5047505;28;20041;-83
2024/02/05 08:39:31;;;;;;;0.32;0.32;;;;;;;;;;5035869;28;20049;-82
2024/02/05 08:42:00;;;;;;;0.22;0.22;;;;;;;;;;5041919;28;20040;-85
2024/02/05 08:44:32;;;;;;;0.30;0.25;;;;;;;;;;5032656;28;20041;-82
2024/02/05 08:46:58;;;;;;;0.90;0.90;;;;;;;;;;5034996;28;20044;-85
2024/02/05 08:49:36;;;;;;;0.20;0.10;;;;;;;;;;5050932;28;20386;-87
2024/02/05 08:52:02;;;;;;;1.05;0.85;;;;;;;;;;5060685;28;20048;-84
2024/02/05 08:54:35;;;;;;;0.20;0.10;;;;;;;;;;5045876;28;20047;-83
2024/02/05 08:57:05;;;;;;;0.30;0.30;;;;;;;;;;5034648;28;20036;-83
2024/02/05 08:59:34;;;;;;;1.42;1.30;;;;;;;;;;5055149;28;20041;-84
2024/02/05 09:02:03;;;;;;;0.30;0.30;;;;;;;;;;5048643;28;20052;-86
2024/02/05 09:04:35;;;;;;;0.20;0.10;;;;;;;;;;5053716;28;20098;-85
2024/02/05 09:07:04;;;;;;;0.20;0.00;;;;;;;;;;5070358;28;20044;-84
2024/02/05 09:09:30;;;;;;;0.20;0.10;;;;;;;;;;5061076;28;20584;-82
2024/02/05 09:11:57;;;;;;;0.63;0.63;;;;;;;;;;5046914;28;20121;-84
2024/02/05 09:14:26;;;;;;;0.20;0.20;;;;;;;;;;5065985;28;20102;-85
2024/02/05 09:16:55;;;;;;;0.20;0.10;;;;;;;;;;5040806;28;20036;-84
2024/02/05 09:19:32;;;;;;;0.20;0.20;;;;;;;;;;5052171;28;20033;-83
2024/02/05 09:22:03;;;;;;;2.15;0.90;;;;;;;;;;5062790;28;20049;-84
2024/02/05 09:24:29;;;;;;;0.30;0.28;;;;;;;;;;5045305;28;20037;-87
2024/02/05 09:27:07;;;;;;;0.20;0.10;;;;;;;;;;5065625;28;20556;-84
2024/02/05 09:29:36;;;;;;;0.20;0.10;;;;;;;;;;5050764;28;20052;-84
2024/02/05 09:32:04;;;;;;;0.30;0.20;;;;;;;;;;5042474;28;20090;-86
2024/02/05 09:34:33;;;;;;;1.27;1.17;;;;;;;;;;5041122;28;20410;-85
2024/02/05 09:37:06;;;;;;;0.20;0.10;;;;;;;;;;5045850;28;20456;-86
2024/02/05 09:39:33;;;;;;;0.20;0.10;;;;;;;;;;5045584;28;20044;-84
2024/02/05 09:42:16;;;;;;;0.20;0.10;;;;;;;;;;5048284;28;20056;-84
2024/02/05 09:44:45;;;;;;;0.47;0.47;;;;;;;;;;5046840;28;20048;-84
2024/02/05 09:47:21;;;;;;;0.35;0.30;;;;;;;;;;5048911;28;20078;-82
2024/02/05 09:49:50;;;;;;;0.20;0.10;;;;;;;;;;5068562;28;20052;-86
2024/02/05 09:52:16;;;;;;;0.20;0.10;;;;;;;;;;5044190;28;20136;-84
2024/02/05 09:54:46;;;;;;;0.20;0.10;;;;;;;;;;5043821;28;20032;-87
2024/02/05 09:57:12;;;;;;;0.63;0.25;;;;;;;;;;5048641;28;20567;-85
2024/02/05 09:59:46;;;;;;;0.20;0.10;;;;;;;;;;5053254;28;20044;-83
2024/02/05 10:02:22;;;;;;;0.20;0.10;;;;;;;;;;5058419;28;20124;-85
2024/02/05 10:04:49;;;;;;;0.20;0.10;;;;;;;;;;5064880;28;20044;-84
2024/02/05 10:07:23;;;;;;;0.30;0.30;;;;;;;;;;5061881;28;20074;-84
2024/02/05 10:09:52;;;;;;;0.20;0.10;;;;;;;;;;5042539;28;20378;-85
2024/02/05 10:12:24;;;;;;;0.20;0.00;;;;;;;;;;5048488;28;20145;-83
2024/02/05 10:15:06;;;;;;;0.20;0.10;;;;;;;;;;5064675;28;20032;-87
2024/02/05 10:17:35;;;;;;;0.20;0.10;;;;;;;;;;5043939;28;20041;-85
2024/02/05 10:20:12;;;;;;;0.20;0.00;;;;;;;;;;5064633;28;20585;-84
2024/02/05 10:22:51;;;;;;;0.20;0.10;;;;;;;;;;5059127;28;20052;-87
2024/02/05 10:25:23;;;;;;;0.43;0.43;;;;;;;;;;5041462;28;20040;-85
2024/02/05 10:27:49;;;;;;;0.30;0.20;;;;;;;;;;5073807;28;20048;-86
2024/02/05 10:30:23;;;;;;;0.52;0.52;;;;;;;;;;5042481;28;20044;-86
2024/02/05 10:33:03;;;;;;;0.20;0.10;;;;;;;;;;5054321;28;20048;-87
2024/02/05 10:35:45;;;;;;;;;;;;;;;;;;;;;
2024/02/05 10:38:27;;;;;;;0.20;0.10;;;;;;;;;;5063087;28;20049;-83
2024/02/05 10:40:56;;;;;;;0.20;0.17;;;;;;;;;;5037107;28;20064;-84
2024/02/05 10:43:29;;;;;;;0.20;0.10;;;;;;;;;;5045461;28;20037;-86
2024/02/05 10:46:01;;;;;;;0.20;0.10;;;;;;;;;;5044174;28;20064;-87
2024/02/05 10:48:27;;;;;;;0.52;0.52;;;;;;;;;;5051438;28;20044;-85
2024/02/05 10:51:03;;;;;;;0.75;0.75;;;;;;;;;;5039538;28;20078;-85
2024/02/05 10:53:32;;;;;;;0.30;0.30;;;;;;;;;;5042635;28;20497;-86
2024/02/05 10:56:01;;;;;;;0.20;0.10;;;;;;;;;;5046915;28;20040;-85
2024/02/05 10:58:30;;;;;;;0.20;0.17;;;;;;;;;;5054407;28;20041;-86
2024/02/05 11:01:13;;;;;;;0.20;0.10;;;;;;;;;;5060632;28;20044;-83
2024/02/05 11:03:40;;;;;;;0.20;0.10;;;;;;;;;;5036753;28;20990;-86
2024/02/05 11:06:13;;;;;;;0.32;0.20;;;;;;;;;;5047700;28;20055;-87
2024/02/05 11:08:46;;;;;;;0.20;0.00;;;;;;;;;;5044531;28;20140;-85
2024/02/05 11:11:19;;;;;;;0.20;0.10;;;;;;;;;;5040893;28;20087;-83
2024/02/05 11:13:52;;;;;;;0.30;0.30;;;;;;;;;;5049486;28;20504;-83
2024/02/05 11:16:22;;;;;;;0.20;0.08;;;;;;;;;;5035463;28;20033;-86
2024/02/05 11:18:59;;;;;;;0.20;0.15;;;;;;;;;;5039062;28;20036;-87
2024/02/05 11:21:27;;;;;;;3.60;1.23;;;;;;;;;;5049193;28;20045;-86
2024/02/05 11:24:04;;;;;;;0.20;0.05;;;;;;;;;;5060836;28;20051;-83
2024/02/05 11:26:40;;;;;;;0.20;0.10;;;;;;;;;;5044446;28;20036;-86
2024/02/05 11:29:09;;;;;;;0.30;0.30;;;;;;;;;;5048417;28;20033;-85
2024/02/05 11:31:42;;;;;;;0.40;0.35;;;;;;;;;;5043742;28;20701;-84
2024/02/05 11:34:11;;;;;;;1.88;0.70;;;;;;;;;;5051177;28;20033;-85
2024/02/05 11:36:42;;;;;;;0.30;0.15;;;;;;;;;;5034319;28;20033;-87
2024/02/05 11:39:12;;;;;;;0.20;0.10;;;;;;;;;;5053660;28;20039;-81
2024/02/05 11:41:38;;;;;;;0.20;0.00;;;;;;;;;;5064391;28;20048;-83
2024/02/05 11:44:39;;;;;;;0.20;0.10;;;;;;;;;;5060003;28;20043;-85
2024/02/05 11:47:16;;;;;;;0.20;0.10;;;;;;;;;;5061471;28;20059;-84
2024/02/05 11:49:46;;;;;;;0.20;0.10;;;;;;;;;;5063373;28;20127;-86
2024/02/05 11:52:16;;;;;;;0.25;0.17;;;;;;;;;;5044651;28;20066;-86
2024/02/05 11:54:42;;;;;;;0.22;0.22;;;;;;;;;;5043728;28;20036;-86
2024/02/05 11:57:14;;;;;;;0.20;0.10;;;;;;;;;;5038119;28;20044;-86
2024/02/05 11:59:40;;;;;;;12.45;1.15;;;;;;;;;;5042892;28;20117;-85
2024/02/05 12:02:06;;;;;;;1.58;0.57;;;;;;;;;;5061360;28;20040;-85
2024/02/05 12:04:32;;;;;;;0.20;0.10;;;;;;;;;;5043011;28;20036;-84
2024/02/05 12:06:58;;;;;;;0.20;0.10;;;;;;;;;;5036863;28;20036;-83
2024/02/05 12:09:24;;;;;;;0.20;0.10;;;;;;;;;;5060008;28;20471;-85
2024/02/05 12:11:51;;;;;;;0.40;0.40;;;;;;;;;;5048184;28;20128;-87
2024/02/05 12:14:17;;;;;;;0.47;0.43;;;;;;;;;;5037332;28;20068;-83
2024/02/05 12:16:43;;;;;;;0.95;0.57;;;;;;;;;;5044513;28;20036;-81
2024/02/05 12:19:26;;;;;;;0.20;0.10;;;;;;;;;;5038174;28;20421;-86
2024/02/05 12:21:55;;;;;;;0.20;0.00;;;;;;;;;;5040207;28;20044;-84
2024/02/05 12:24:21;;;;;;;0.20;0.10;;;;;;;;;;5061420;28;20451;-83
2024/02/05 12:26:49;;;;;;;0.20;0.10;;;;;;;;;;5061133;28;20448;-84
2024/02/05 12:29:39;;;;;;;0.65;0.65;;;;;;;;;;5039170;28;20065;-85
2024/02/05 12:32:13;;;;;;;0.28;0.28;;;;;;;;;;5036623;28;20049;-86
2024/02/05 12:34:47;;;;;;;0.57;0.57;;;;;;;;;;5039856;28;20076;-84
2024/02/05 12:37:14;;;;;;;0.43;0.43;;;;;;;;;;5054463;28;20060;-87
2024/02/05 12:39:53;;;;;;;0.20;0.20;;;;;;;;;;5064166;28;20028;-82
2024/02/05 12:42:19;;;;;;;0.20;0.10;;;;;;;;;;5061128;28;20040;-85
2024/02/05 12:44:51;;;;;;;0.20;0.10;;;;;;;;;;5051070;28;20623;-85
2024/02/05 12:47:32;;;;;;;0.20;0.10;;;;;;;;;;5043763;28;20489;-84
2024/02/05 12:50:04;;;;;;;0.20;0.10;;;;;;;;;;5051804;28;20272;-83
2024/02/05 12:52:51;;;;;;;0.20;0.10;;;;;;;;;;5053341;28;20554;-85
2024/02/05 12:55:32;;;;;;;0.20;0.05;;;;;;;;;;5069488;28;20044;-83
2024/02/05 12:57:58;;;;;;;0.20;0.10;;;;;;;;;;5058867;28;20043;-83
2024/02/05 13:00:30;;;;;;;13.35;1.65;;;;;;;;;;5042114;28;20048;-85
2024/02/05 13:03:03;;;;;;;0.20;0.05;;;;;;;;;;5066141;28;20125;-85
2024/02/05 13:05:30;;;;;;;0.20;0.10;;;;;;;;;;5048809;28;20119;-84
2024/02/05 13:08:08;;;;;;;0.20;0.10;;;;;;;;;;5065321;28;20053;-85
2024/02/05 13:10:42;;;;;;;0.20;0.10;;;;;;;;;;5042982;28;20032;-86
2024/02/05 13:13:16;;;;;;;0.20;0.10;;;;;;;;;;5049035;28;20043;-83
2024/02/05 13:15:43;;;;;;;1.90;1.60;;;;;;;;;;5049801;28;20055;-84
2024/02/05 13:18:35;;;;;;;0.20;0.10;;;;;;;;;;5056146;28;20036;-86
2024/02/05 13:21:05;;;;;;;2.75;0.73;;;;;;;;;;5050396;28;20104;-83
2024/02/05 13:23:46;;;;;;;0.20;0.20;;;;;;;;;;5076249;28;20053;-85
2024/02/05 13:26:24;;;;;;;0.25;0.13;;;;;;;;;;5058388;28;20048;-84
2024/02/05 13:28:59;;;;;;;0.20;0.10;;;;;;;;;;5040753;28;20072;-84
2024/02/05 13:31:37;;;;;;;0.20;0.10;;;;;;;;;;5056221;28;20052;-84
2024/02/05 13:34:09;;;;;;;0.30;0.30;;;;;;;;;;5041953;28;20044;-85
2024/02/05 13:36:42;;;;;;;0.20;0.10;;;;;;;;;;5063553;28;20036;-84
2024/02/05 13:39:08;;;;;;;5.22;2.35;;;;;;;;;;5058547;28;20481;-85
2024/02/05 13:41:42;;;;;;;1.73;1.63;;;;;;;;;;5062510;28;20048;-85
2024/02/05 13:44:09;;;;;;;0.38;0.13;;;;;;;;;;5066914;28;20429;-86
2024/02/05 13:46:38;;;;;;;0.30;0.25;;;;;;;;;;5048030;28;20039;-84
2024/02/05 13:49:05;;;;;;;0.20;0.10;;;;;;;;;;5046666;28;20059;-86
2024/02/05 13:51:52;;;;;;;0.30;0.20;;;;;;;;;;5063815;28;20086;-85
2024/02/05 13:54:32;;;;;;;;;;;;;;;;;;;;;
2024/02/05 13:57:04;;;;;;;0.20;0.10;;;;;;;;;;5059556;28;20570;-86
2024/02/05 13:59:33;;;;;;;0.20;0.10;;;;;;;;;;5042885;28;20036;-86
2024/02/05 14:01:59;;;;;;;0.20;0.10;;;;;;;;;;5049851;28;20055;-88
2024/02/05 14:04:40;;;;;;;0.20;0.17;;;;;;;;;;5051880;28;20462;-86
2024/02/05 14:07:06;;;;;;;0.55;0.55;;;;;;;;;;5047975;28;20140;-86
2024/02/05 14:09:32;;;;;;;0.35;0.35;;;;;;;;;;5063744;28;20367;-85
2024/02/05 14:12:01;;;;;;;0.40;0.40;;;;;;;;;;5052629;28;20052;-85
2024/02/05 14:14:31;;;;;;;0.20;0.10;;;;;;;;;;5063130;28;20505;-85
2024/02/05 14:16:59;;;;;;;0.20;0.10;;;;;;;;;;5043511;28;20071;-86
2024/02/05 14:19:28;;;;;;;0.20;0.08;;;;;;;;;;5052021;28;20071;-88
2024/02/05 14:21:54;;;;;;;1.65;1.55;;;;;;;;;;5064021;28;20044;-86
2024/02/05 14:24:23;;;;;;;0.20;0.10;;;;;;;;;;5041535;28;20083;-87
2024/02/05 14:26:50;;;;;;;0.20;0.10;;;;;;;;;;5080205;22;20127;-87
2024/02/05 14:29:16;;;;;;;0.22;0.17;;;;;;;;;;5026438;28;20459;-81
2024/02/05 14:31:44;;;;;;;0.20;0.10;;;;;;;;;;5043059;28;20083;-87
2024/02/05 14:34:10;;;;;;;0.20;0.10;;;;;;;;;;5026880;28;20041;-84
2024/02/05 14:36:36;;;;;;;0.30;0.20;;;;;;;;;;5028258;28;20033;-84
2024/02/05 14:39:05;;;;;;;1.00;0.40;;;;;;;;;;5019190;28;20037;-84
2024/02/05 14:41:31;;;;;;;0.20;0.10;;;;;;;;;;5013386;28;20037;-84
2024/02/05 14:43:57;;;;;;;0.20;0.10;;;;;;;;;;5006651;28;20037;-84
2024/02/05 14:46:23;;;;;;;0.20;0.10;;;;;;;;;;5004796;28;20040;-84
2024/02/05 14:48:49;;;;;;;0.20;0.10;;;;;;;;;;5016918;28;20111;-85
2024/02/05 14:51:16;;;;;;;1.55;1.27;;;;;;;;;;5031003;28;20053;-83
2024/02/05 14:53:42;;;;;;;0.20;0.10;;;;;;;;;;5033672;28;20038;-85
2024/02/05 14:56:08;;;;;;;0.20;0.10;;;;;;;;;;5016471;28;20519;-85